»·PEaware :: N383KK KEUG-KOTH

N383KK :: KEUG-KOTH

FLIGHT INFORMATION

Flight Status: Arrived
Operator: Privately registered:
United States
More flights under this callsign
Pilot: Tanner C. (11250)
Aircraft: SOCATA TBM-900
(TBM9)
More flights by this aircraft type
Origin: KEUG Mahlon Sweet
United States
Destination: KOTH North Bend Mun
United States
More flights between these airports :: More routes between these airports
Route: +EUG1 EUG V121 OTH
File this flight plan on PilotEdge
Remarks:
Altitude:
(Current/Filed)
10,000ft
Speed:
(Current/Filed)
220kts
Departed: 26-Dec-18 01:18 PM
Arrived: 26-Dec-18 01:52 PM
Distance/Time
Traveled:
403nm/0:33
Distance/Time
To Go:
Arrived

Flight Plot

Page will automatically refresh every two minutes.

Flight plan parsing failed; only flown route is shown


Map Options




Map Legend


Flown Route
Filed Route
Departure Airport
Arrival Airport
Navaid (VOR, NDB)
Fix

Horizontal Profiles

Position Reports

Time Latitude Longitude Heading Altitude Ground
Speed
26-Dec-18 13:01 44.121262 -123.213028 209 365ft 0kts
26-Dec-18 13:02 44.121262 -123.213028 209 365ft 0kts
26-Dec-18 13:03 44.121262 -123.213028 209 365ft 0kts
26-Dec-18 13:04 44.121262 -123.213028 209 365ft 0kts
26-Dec-18 13:05 44.121262 -123.213028 209 365ft 0kts
26-Dec-18 13:06 44.121262 -123.213028 209 365ft 0kts
26-Dec-18 13:07 44.121262 -123.213028 209 365ft 0kts
26-Dec-18 13:08 44.121262 -123.213028 209 365ft 0kts
26-Dec-18 13:09 44.121262 -123.213028 209 365ft 0kts
26-Dec-18 13:10 44.121262 -123.213028 209 365ft 0kts
26-Dec-18 13:11 44.121262 -123.213028 209 365ft 0kts
26-Dec-18 13:12 44.121235 -123.213049 209 365ft 3kts
26-Dec-18 13:13 44.124684 -123.217059 2 362ft 21kts
26-Dec-18 13:14 44.131219 -123.217183 357 357ft 27kts
26-Dec-18 13:15 44.135282 -123.217943 279 354ft 0kts
26-Dec-18 13:16 44.135066 -123.219106 201 354ft 20kts
26-Dec-18 13:17 44.105559 -123.219507 179 1308ft 148kts
26-Dec-18 13:18 44.063450 -123.220260 178 3147ft 155kts
26-Dec-18 13:19 44.035729 -123.254434 232 5262ft 139kts
26-Dec-18 13:20 44.041924 -123.293651 354 6906ft 175kts
26-Dec-18 13:21 44.080392 -123.292881 274 8169ft 146kts
26-Dec-18 13:22 44.050629 -123.329309 224 8992ft 173kts
26-Dec-18 13:23 44.012773 -123.374066 224 8978ft 197kts
26-Dec-18 13:24 43.975294 -123.421627 228 9782ft 183kts
26-Dec-18 13:25 43.935937 -123.474065 228 9978ft 220kts
26-Dec-18 13:26 43.893620 -123.531126 228 9971ft 228kts
26-Dec-18 13:27 43.851170 -123.588318 228 9970ft 230kts
26-Dec-18 13:28 43.807418 -123.647145 228 9969ft 230kts
26-Dec-18 13:29 43.762867 -123.706919 227 10024ft 230kts
26-Dec-18 13:30 43.718057 -123.766908 227 10028ft 231kts
26-Dec-18 13:31 43.689919 -123.839961 257 10029ft 225kts
26-Dec-18 13:32 43.676045 -123.925276 257 9025ft 234kts
26-Dec-18 13:33 43.662021 -124.012577 262 6431ft 226kts
26-Dec-18 13:34 43.675308 -124.085831 280 5612ft 173kts
26-Dec-18 13:36 43.681723 -124.149022 272 5622ft 165kts
26-Dec-18 13:37 43.679882 -124.215948 263 5631ft 183kts
26-Dec-18 13:38 43.668264 -124.285611 254 5624ft 189kts
26-Dec-18 13:39 43.646602 -124.351956 244 5624ft 192kts
26-Dec-18 13:40 43.615298 -124.412026 234 5621ft 195kts
26-Dec-18 13:41 43.575227 -124.462850 224 5575ft 191kts
26-Dec-18 13:42 43.530821 -124.499839 214 5579ft 188kts
26-Dec-18 13:43 43.478890 -124.525348 201 4927ft 213kts
26-Dec-18 13:44 43.418501 -124.535659 188 3957ft 220kts
26-Dec-18 13:45 43.358363 -124.526989 174 3017ft 220kts
26-Dec-18 13:46 43.310821 -124.491739 94 2565ft 193kts
26-Dec-18 13:47 43.341402 -124.439053 64 2476ft 181kts
26-Dec-18 13:48 43.366599 -124.377283 61 1904ft 188kts
26-Dec-18 13:49 43.390102 -124.320523 61 1043ft 134kts
26-Dec-18 13:50 43.404407 -124.286027 62 582ft 101kts
26-Dec-18 13:51 43.416200 -124.257040 63 23ft 75kts
26-Dec-18 13:52 43.417560 -124.251031 124 19ft 5kts
26-Dec-18 13:53 43.418410 -124.246609 186 16ft 12kts
26-Dec-18 13:54 43.416964 -124.246754 149 19ft 0kts
26-Dec-18 13:54 43.416964 -124.246754 149 19ft 0kts
26-Dec-18 13:56 43.416964 -124.246754 149 19ft 0kts
26-Dec-18 13:56 43.416964 -124.246754 149 19ft 0kts
26-Dec-18 14:04 37.628343 -120.964214 215 90ft 0kts
26-Dec-18 14:05 37.628343 -120.964214 215 90ft 0kts

Navigation Log

Ident Type
Flight plan parsing failed, navigation log unavailable